Time;durP1;ratioP1;P1;durP2;ratioP2;P2;SDS_P1;SDS_P2;PMS_P1;PMS_P2;Temp;Humidity;BMP_temperature;BMP_pressure;BME280_temperature;BME280_humidity;BME280_pressure;Samples;Min_cycle;Max_cycle;Signal;HPM_P1;HPM_P2
2022/10/30 00:01:04;;;;;;;18.23;9.32;;;18.30;99.90;;;;;;4961394;28;20502;-77
2022/10/30 00:03:30;;;;;;;30.88;9.23;;;18.30;99.90;;;;;;4964796;28;20477;-75
2022/10/30 00:05:56;;;;;;;22.67;9.10;;;18.20;99.90;;;;;;4963508;28;20027;-74
2022/10/30 00:08:24;;;;;;;28.48;9.32;;;18.20;99.90;;;;;;4961917;28;20034;-75
2022/10/30 00:10:50;;;;;;;25.75;9.40;;;18.20;99.90;;;;;;4946506;28;20141;-76
2022/10/30 00:13:17;;;;;;;22.17;10.05;;;18.20;99.90;;;;;;4961963;28;20031;-75
2022/10/30 00:15:53;;;;;;;25.13;10.85;;;18.10;99.90;;;;;;4962203;28;20027;-76
2022/10/30 00:18:20;;;;;;;26.60;10.20;;;18.10;99.90;;;;;;4961690;28;20081;-75
2022/10/30 00:20:47;;;;;;;23.65;9.50;;;18.10;99.90;;;;;;4978351;28;20468;-74
2022/10/30 00:23:15;;;;;;;28.80;10.98;;;18.10;99.90;;;;;;4960717;28;20043;-75
2022/10/30 00:25:41;;;;;;;23.98;11.30;;;18.10;99.90;;;;;;4964517;28;20049;-75
2022/10/30 00:28:07;;;;;;;24.63;10.55;;;18.00;99.90;;;;;;4942882;28;20035;-75
2022/10/30 00:30:34;;;;;;;30.00;11.10;;;18.10;99.90;;;;;;4941711;28;20036;-74
2022/10/30 00:32:59;;;;;;;28.83;11.80;;;18.10;99.90;;;;;;4944567;28;20035;-74
2022/10/30 00:35:26;;;;;;;23.33;11.52;;;18.10;99.90;;;;;;4942585;28;20383;-75
2022/10/30 00:37:52;;;;;;;30.45;11.65;;;18.00;99.90;;;;;;4954926;28;20050;-75
2022/10/30 00:40:18;;;;;;;22.95;10.98;;;18.00;99.90;;;;;;4976956;28;20097;-75
2022/10/30 00:42:44;;;;;;;24.92;10.70;;;18.00;99.90;;;;;;4958031;28;20126;-73
2022/10/30 00:45:12;;;;;;;24.73;11.80;;;18.00;99.90;;;;;;4942138;28;20036;-75
2022/10/30 00:47:42;;;;;;;27.80;12.15;;;17.90;99.90;;;;;;4940315;28;20561;-74
2022/10/30 00:50:11;;;;;;;26.90;11.35;;;17.90;99.90;;;;;;4945706;28;20040;-75
2022/10/30 00:52:43;;;;;;;28.67;11.18;;;17.80;99.90;;;;;;4943018;28;20059;-74
2022/10/30 00:55:14;;;;;;;24.80;11.88;;;17.80;99.90;;;;;;4939202;28;20035;-76
2022/10/30 00:57:40;;;;;;;26.95;11.82;;;17.90;99.90;;;;;;4946274;28;20039;-74
2022/10/30 01:00:07;;;;;;;24.20;10.50;;;17.80;99.90;;;;;;4943928;28;20079;-75
2022/10/30 01:02:33;;;;;;;23.83;10.43;;;17.80;99.90;;;;;;4942745;28;20047;-75
2022/10/30 01:05:01;;;;;;;20.30;9.48;;;17.80;99.90;;;;;;4945617;28;20032;-74
2022/10/30 01:07:27;;;;;;;30.02;11.23;;;17.80;99.90;;;;;;4944749;28;20506;-75
2022/10/30 01:09:53;;;;;;;31.52;10.32;;;17.80;99.90;;;;;;4932552;28;20518;-75
2022/10/30 01:12:20;;;;;;;24.05;10.60;;;17.70;99.90;;;;;;4941750;28;20054;-74
2022/10/30 01:14:52;;;;;;;25.13;9.93;;;17.70;99.90;;;;;;4942617;28;20035;-74
2022/10/30 01:17:48;;;;;;;21.02;9.80;;;17.70;99.90;;;;;;4944494;28;20036;-74
2022/10/30 01:20:51;;;;;;;20.90;10.40;;;17.70;99.90;;;;;;4954777;28;20038;-75
2022/10/30 01:23:34;;;;;;;22.33;9.20;;;17.60;99.90;;;;;;4931679;28;20055;-74
2022/10/30 01:26:22;;;;;;;26.75;10.45;;;17.60;99.90;;;;;;4938903;28;20063;-75
2022/10/30 01:29:18;;;;;;;25.33;9.88;;;17.60;99.90;;;;;;4941506;28;20118;-74
2022/10/30 01:32:18;;;;;;;22.92;9.18;;;17.60;99.90;;;;;;4962948;28;20043;-75
2022/10/30 01:34:57;;;;;;;27.83;10.25;;;17.60;99.90;;;;;;4963060;28;20371;-74
2022/10/30 01:37:38;;;;;;;24.38;9.88;;;17.50;99.90;;;;;;4955894;28;20597;-75
2022/10/30 01:40:16;;;;;;;25.98;9.80;;;17.60;99.90;;;;;;4961451;28;20226;-74
2022/10/30 01:42:44;;;;;;;19.25;8.77;;;17.60;99.90;;;;;;4978994;28;20038;-74
2022/10/30 01:45:20;;;;;;;20.95;9.05;;;17.60;99.90;;;;;;4951378;28;20684;-75
2022/10/30 01:48:12;;;;;;;20.90;9.15;;;17.70;99.90;;;;;;4941079;28;20366;-75
2022/10/30 01:50:50;;;;;;;21.13;8.35;;;17.80;99.90;;;;;;4952276;28;20382;-74
2022/10/30 01:53:25;;;;;;;26.42;9.75;;;18.00;99.90;;;;;;4959161;28;20035;-74
2022/10/30 01:56:04;;;;;;;18.90;8.60;;;18.00;99.90;;;;;;4960545;28;20028;-75
2022/10/30 01:58:42;;;;;;;22.95;9.25;;;18.10;99.90;;;;;;4955344;28;21158;-74
2022/10/30 02:01:09;;;;;;;23.08;9.10;;;18.20;99.90;;;;;;4941986;28;20072;-75
2022/10/30 02:03:35;;;;;;;23.98;8.25;;;18.20;99.90;;;;;;4945768;28;20416;-75
2022/10/30 02:06:01;;;;;;;17.33;7.70;;;18.30;99.90;;;;;;4959147;28;20140;-75
2022/10/30 02:08:27;;;;;;;20.17;9.73;;;18.20;99.90;;;;;;4942595;28;20795;-75
2022/10/30 02:10:54;;;;;;;24.08;8.60;;;18.20;99.90;;;;;;4940849;28;20357;-75
2022/10/30 02:13:20;;;;;;;24.00;9.10;;;18.10;99.90;;;;;;4956877;28;20070;-75
2022/10/30 02:15:47;;;;;;;23.92;9.13;;;18.10;99.90;;;;;;4941894;28;20051;-74
2022/10/30 02:18:13;;;;;;;22.00;8.57;;;18.00;99.90;;;;;;4920489;28;20035;-75
2022/10/30 02:20:39;;;;;;;19.48;8.20;;;18.00;99.90;;;;;;4940815;28;20041;-74
2022/10/30 02:23:05;;;;;;;18.35;7.40;;;17.90;99.90;;;;;;4941411;28;20042;-75
2022/10/30 02:25:31;;;;;;;23.02;8.45;;;17.80;99.90;;;;;;4926664;28;20111;-74
2022/10/30 02:27:58;;;;;;;24.90;8.98;;;17.80;99.90;;;;;;4952358;28;20097;-75
2022/10/30 02:30:23;;;;;;;21.73;8.40;;;17.80;99.90;;;;;;4957533;28;20125;-75
2022/10/30 02:32:49;;;;;;;22.88;9.63;;;17.70;99.90;;;;;;4957999;28;20133;-75
2022/10/30 02:35:15;;;;;;;19.52;8.32;;;17.70;99.90;;;;;;4947032;28;20042;-74
2022/10/30 02:37:41;;;;;;;20.27;8.40;;;17.60;99.90;;;;;;4958910;28;20066;-75
2022/10/30 02:40:09;;;;;;;22.88;9.02;;;17.60;99.90;;;;;;4959388;28;20037;-75
2022/10/30 02:42:35;;;;;;;21.67;9.52;;;17.50;99.90;;;;;;4937246;28;20054;-74
2022/10/30 02:45:02;;;;;;;28.75;9.40;;;17.50;99.90;;;;;;4943501;28;20359;-74
2022/10/30 02:47:28;;;;;;;22.85;9.05;;;17.50;99.90;;;;;;4926478;29;20074;-75
2022/10/30 02:49:54;;;;;;;21.50;8.00;;;17.50;99.90;;;;;;4945408;28;20580;-74
2022/10/30 02:52:20;;;;;;;25.13;9.05;;;17.60;99.90;;;;;;4939454;28;20123;-74
2022/10/30 02:54:46;;;;;;;20.95;8.93;;;17.60;99.90;;;;;;4941858;28;20051;-74
2022/10/30 02:57:11;;;;;;;21.63;8.40;;;17.60;99.90;;;;;;4941441;28;20724;-74
2022/10/30 02:59:37;;;;;;;23.23;9.18;;;17.70;99.90;;;;;;4945955;28;20114;-75
2022/10/30 03:02:03;;;;;;;21.92;8.30;;;17.70;99.90;;;;;;4950548;28;20065;-75
2022/10/30 03:04:29;;;;;;;21.98;7.72;;;17.70;99.90;;;;;;4974282;28;20495;-75
2022/10/30 03:06:55;;;;;;;18.48;8.50;;;17.80;99.90;;;;;;4961281;28;20072;-75
2022/10/30 03:09:21;;;;;;;22.73;9.00;;;17.80;99.90;;;;;;4939630;28;20087;-74
2022/10/30 03:11:48;;;;;;;20.55;8.80;;;17.80;99.90;;;;;;4942939;28;20031;-74
2022/10/30 03:14:14;;;;;;;;;;;17.90;99.90;;;;;;4943132;28;20043;-74
2022/10/30 03:16:39;;;;;;;20.58;8.05;;;18.00;99.90;;;;;;4947593;28;19914;-74
2022/10/30 03:19:05;;;;;;;22.90;8.35;;;18.00;99.90;;;;;;4964040;28;20039;-74
2022/10/30 03:21:31;;;;;;;19.90;8.02;;;18.00;99.90;;;;;;4937577;28;20038;-75
2022/10/30 03:23:57;;;;;;;19.40;8.75;;;18.10;99.90;;;;;;4938865;28;20593;-75
2022/10/30 03:26:23;;;;;;;18.52;8.15;;;18.00;99.90;;;;;;4942061;28;20035;-74
2022/10/30 03:28:49;;;;;;;18.42;8.07;;;18.00;99.90;;;;;;4958069;28;20045;-74
2022/10/30 03:31:17;;;;;;;18.25;7.55;;;18.00;99.90;;;;;;4956687;28;20418;-74
2022/10/30 03:33:44;;;;;;;19.95;7.35;;;17.90;99.90;;;;;;4944599;28;20507;-73
2022/10/30 03:36:11;;;;;;;18.80;8.60;;;17.90;99.90;;;;;;4939182;28;20484;-75
2022/10/30 03:38:37;;;;;;;21.23;8.13;;;17.80;99.90;;;;;;4927848;28;20043;-74
2022/10/30 03:41:04;;;;;;;19.65;8.93;;;17.80;99.90;;;;;;4944150;28;20032;-75
2022/10/30 03:43:30;;;;;;;;;;;17.80;99.90;;;;;;4951882;28;20062;-74
2022/10/30 03:45:56;;;;;;;18.23;7.72;;;17.70;99.90;;;;;;4944942;28;19950;-74
2022/10/30 03:48:24;;;;;;;21.52;8.02;;;17.70;99.90;;;;;;4945935;28;21070;-74
2022/10/30 03:50:54;;;;;;;17.40;7.30;;;17.70;99.90;;;;;;4950029;28;20043;-74
2022/10/30 03:53:21;;;;;;;17.15;7.50;;;17.70;99.90;;;;;;4935376;28;20043;-74
2022/10/30 03:55:49;;;;;;;20.80;7.97;;;17.70;99.90;;;;;;4939245;28;20038;-75
2022/10/30 03:58:15;;;;;;;20.85;8.13;;;17.70;99.90;;;;;;4966177;28;20039;-74
2022/10/30 04:00:41;;;;;;;21.48;7.80;;;17.70;99.90;;;;;;4978096;28;20069;-74
2022/10/30 04:03:09;;;;;;;20.30;7.40;;;17.70;99.90;;;;;;4959509;28;20035;-74
2022/10/30 04:05:36;;;;;;;20.20;7.82;;;17.70;99.90;;;;;;4967585;28;20046;-74
2022/10/30 04:08:06;;;;;;;17.65;7.03;;;17.70;99.90;;;;;;4941697;28;20054;-74
2022/10/30 04:10:33;;;;;;;16.92;7.70;;;17.60;99.90;;;;;;4940146;28;20050;-74
2022/10/30 04:13:09;;;;;;;17.38;7.15;;;17.60;99.90;;;;;;4945886;28;20049;-74
2022/10/30 04:15:36;;;;;;;14.85;6.57;;;17.50;99.90;;;;;;4943948;28;20047;-74
2022/10/30 04:18:02;;;;;;;;;;;17.50;99.90;;;;;;4947147;28;20045;-74
2022/10/30 04:20:28;;;;;;;22.33;7.55;;;17.50;99.90;;;;;;4964135;28;19922;-74
2022/10/30 04:23:04;;;;;;;19.55;7.10;;;17.50;99.90;;;;;;4947887;28;20043;-75
2022/10/30 04:25:32;;;;;;;18.42;6.93;;;17.50;99.90;;;;;;4941149;28;20039;-73
2022/10/30 04:27:58;;;;;;;19.55;7.85;;;17.50;99.90;;;;;;4944681;28;20039;-74
2022/10/30 04:30:26;;;;;;;19.60;7.22;;;17.40;99.90;;;;;;4951104;28;20172;-74
2022/10/30 04:32:55;;;;;;;17.35;7.25;;;17.40;99.90;;;;;;4944086;28;20046;-75
2022/10/30 04:35:23;;;;;;;19.08;7.97;;;17.30;99.90;;;;;;4943923;28;20095;-74
2022/10/30 04:37:53;;;;;;;19.92;8.18;;;17.40;99.90;;;;;;4943768;28;20027;-74
2022/10/30 04:40:18;;;;;;;20.08;8.15;;;17.30;99.90;;;;;;4972652;28;20517;-74
2022/10/30 04:42:47;;;;;;;17.27;8.93;;;17.30;99.90;;;;;;4948381;28;20063;-74
2022/10/30 04:45:14;;;;;;;16.92;8.82;;;17.20;99.90;;;;;;4944890;28;20039;-74
2022/10/30 04:47:39;;;;;;;25.25;9.55;;;17.20;99.90;;;;;;4959066;28;20039;-74
2022/10/30 04:50:06;;;;;;;21.23;9.65;;;17.20;99.90;;;;;;4941728;28;20057;-74
2022/10/30 04:52:32;;;;;;;29.02;10.23;;;17.20;99.90;;;;;;4945122;28;20044;-74
2022/10/30 04:54:57;;;;;;;28.77;10.32;;;17.20;99.90;;;;;;4941050;28;20086;-74
2022/10/30 04:57:25;;;;;;;31.58;10.23;;;17.20;99.90;;;;;;4955751;28;20035;-74
2022/10/30 04:59:50;;;;;;;22.73;9.73;;;17.20;99.90;;;;;;4939034;28;20073;-75
2022/10/30 05:02:18;;;;;;;21.63;9.77;;;17.20;99.90;;;;;;4924404;28;20090;-75
2022/10/30 05:04:44;;;;;;;22.58;10.82;;;17.20;99.90;;;;;;4944747;28;20122;-73
2022/10/30 05:07:12;;;;;;;26.50;11.20;;;17.20;99.90;;;;;;4938543;28;20069;-74
2022/10/30 05:09:37;;;;;;;27.60;10.82;;;17.10;99.90;;;;;;4942631;28;20360;-75
2022/10/30 05:12:03;;;;;;;26.05;10.90;;;17.10;99.90;;;;;;4955808;28;20104;-74
2022/10/30 05:14:31;;;;;;;21.27;10.82;;;17.10;99.90;;;;;;4942283;28;20036;-74
2022/10/30 05:16:58;;;;;;;26.00;10.85;;;17.10;99.90;;;;;;4942142;28;20062;-75
2022/10/30 05:19:24;;;;;;;23.02;9.65;;;17.00;99.90;;;;;;4936308;28;20036;-75
2022/10/30 05:21:50;;;;;;;20.08;10.18;;;17.10;99.90;;;;;;4942829;28;20042;-75
2022/10/30 05:24:17;;;;;;;21.50;9.45;;;17.10;99.90;;;;;;4959777;28;20118;-75
2022/10/30 05:26:43;;;;;;;23.55;9.38;;;17.10;99.90;;;;;;4943357;28;20039;-74
2022/10/30 05:29:09;;;;;;;19.85;8.85;;;17.10;99.90;;;;;;4940616;28;20038;-74
2022/10/30 05:31:36;;;;;;;20.67;8.60;;;17.10;99.90;;;;;;4955621;28;20114;-74
2022/10/30 05:34:04;;;;;;;26.10;9.45;;;17.10;99.90;;;;;;4961743;28;20039;-74
2022/10/30 05:36:31;;;;;;;22.92;8.68;;;17.10;99.90;;;;;;4961054;28;20039;-75
2022/10/30 05:38:57;;;;;;;21.23;8.77;;;17.20;99.90;;;;;;4960232;28;20035;-74
2022/10/30 05:41:23;;;;;;;24.38;9.05;;;17.20;99.90;;;;;;4939399;28;20093;-74
2022/10/30 05:43:48;;;;;;;22.98;9.20;;;17.20;99.90;;;;;;4938592;28;20035;-74
2022/10/30 05:46:14;;;;;;;25.70;9.13;;;17.20;99.90;;;;;;4957343;28;20625;-74
2022/10/30 05:48:40;;;;;;;21.27;9.85;;;17.20;99.90;;;;;;4935190;28;20036;-74
2022/10/30 05:51:07;;;;;;;22.27;8.73;;;17.20;99.90;;;;;;4940889;28;20030;-74
2022/10/30 05:53:33;;;;;;;19.52;9.13;;;17.20;99.90;;;;;;4936166;28;20031;-73
2022/10/30 05:55:59;;;;;;;15.93;8.13;;;17.20;99.90;;;;;;4944792;28;20046;-74
2022/10/30 05:58:25;;;;;;;17.95;9.20;;;17.20;99.90;;;;;;4941454;28;20409;-74
2022/10/30 06:00:51;;;;;;;22.35;9.65;;;17.20;99.90;;;;;;4921839;28;20040;-74
2022/10/30 06:03:17;;;;;;;18.13;9.57;;;17.20;99.90;;;;;;4939481;28;20170;-74
2022/10/30 06:05:45;;;;;;;22.33;8.48;;;17.20;99.90;;;;;;4925081;28;20051;-74
2022/10/30 06:08:11;;;;;;;20.40;9.10;;;17.20;99.90;;;;;;4939388;28;20086;-74
2022/10/30 06:10:37;;;;;;;20.92;8.45;;;17.20;99.90;;;;;;4934715;28;20071;-74
2022/10/30 06:13:05;;;;;;;22.90;8.20;;;17.20;99.90;;;;;;4941872;28;20411;-74
2022/10/30 06:15:32;;;;;;;23.00;9.15;;;17.20;99.90;;;;;;4963165;28;20035;-74
2022/10/30 06:18:00;;;;;;;20.30;8.05;;;17.20;99.90;;;;;;4961027;28;20066;-74
2022/10/30 06:20:28;;;;;;;20.92;7.53;;;17.20;99.90;;;;;;4961415;28;20038;-73
2022/10/30 06:23:06;;;;;;;22.25;9.25;;;17.20;99.90;;;;;;4961245;28;20074;-74
2022/10/30 06:25:35;;;;;;;26.63;9.55;;;17.20;99.90;;;;;;4956780;28;20046;-76
2022/10/30 06:28:01;;;;;;;20.60;8.50;;;17.20;99.90;;;;;;4961215;28;20470;-74
2022/10/30 06:30:27;;;;;;;20.63;8.77;;;17.20;99.90;;;;;;4960041;28;20042;-74
2022/10/30 06:33:00;;;;;;;20.25;9.40;;;17.20;99.90;;;;;;4957078;28;20422;-75
2022/10/30 06:35:27;;;;;;;16.77;8.98;;;17.20;99.90;;;;;;4941755;28;20724;-74
2022/10/30 06:37:55;;;;;;;19.38;8.38;;;17.20;99.90;;;;;;4943780;28;20510;-76
2022/10/30 06:40:22;;;;;;;17.30;8.13;;;17.20;99.90;;;;;;4945410;28;20035;-75
2022/10/30 06:42:52;;;;;;;20.45;8.57;;;17.30;99.90;;;;;;4960559;28;20050;-75
2022/10/30 06:45:20;;;;;;;20.05;8.27;;;17.30;99.90;;;;;;4964509;28;20109;-74
2022/10/30 06:47:46;;;;;;;23.80;8.98;;;17.40;99.90;;;;;;4943349;28;20043;-74
2022/10/30 06:50:18;;;;;;;18.08;8.75;;;17.40;99.90;;;;;;4975477;28;20043;-74
2022/10/30 06:52:44;;;;;;;24.25;8.32;;;17.50;99.90;;;;;;4976245;28;20171;-74
2022/10/30 06:55:10;;;;;;;21.60;8.68;;;17.60;99.90;;;;;;4958999;28;20133;-74
2022/10/30 06:57:37;;;;;;;21.45;8.57;;;17.70;99.90;;;;;;4965716;28;20042;-75
2022/10/30 07:00:05;;;;;;;21.95;9.60;;;17.80;99.90;;;;;;4941270;28;20502;-74
2022/10/30 07:02:31;;;;;;;19.95;8.85;;;17.90;99.90;;;;;;4961222;28;20185;-74
2022/10/30 07:04:57;;;;;;;24.25;9.05;;;17.90;99.90;;;;;;4962368;28;20408;-74
2022/10/30 07:07:24;;;;;;;16.88;8.27;;;18.10;99.90;;;;;;4964526;28;20053;-74
2022/10/30 07:09:50;;;;;;;18.55;9.23;;;18.20;99.90;;;;;;4951278;28;20038;-74
2022/10/30 07:12:16;;;;;;;20.90;9.02;;;18.30;99.90;;;;;;4959221;28;20062;-74
2022/10/30 07:14:43;;;;;;;19.92;8.35;;;18.30;99.90;;;;;;4948917;28;20027;-75
2022/10/30 07:17:09;;;;;;;18.58;7.28;;;18.40;99.90;;;;;;4946671;28;20094;-75
2022/10/30 07:19:35;;;;;;;22.10;8.95;;;18.50;99.90;;;;;;4944593;28;20035;-75
2022/10/30 07:22:01;;;;;;;20.52;8.80;;;18.60;99.90;;;;;;4942625;28;21763;-75
2022/10/30 07:24:27;;;;;;;20.95;8.23;;;18.70;99.90;;;;;;4940934;28;20055;-75
2022/10/30 07:26:54;;;;;;;18.13;7.75;;;18.80;99.90;;;;;;4956750;28;20352;-75
2022/10/30 07:29:20;;;;;;;15.32;7.65;;;19.00;99.90;;;;;;4948154;28;20035;-76
2022/10/30 07:31:46;;;;;;;19.33;8.15;;;19.10;99.90;;;;;;4969378;28;20129;-75
2022/10/30 07:34:12;;;;;;;22.40;8.80;;;19.20;99.90;;;;;;4965369;28;20046;-75
2022/10/30 07:36:39;;;;;;;17.80;7.63;;;19.30;99.90;;;;;;4963069;28;20034;-75
2022/10/30 07:39:05;;;;;;;24.38;8.40;;;19.50;99.90;;;;;;4967681;28;20091;-75
2022/10/30 07:41:31;;;;;;;18.35;7.95;;;19.50;99.90;;;;;;4961619;28;20459;-74
2022/10/30 07:43:57;;;;;;;20.20;9.05;;;19.40;99.90;;;;;;4964449;28;20031;-75
2022/10/30 07:46:24;;;;;;;20.67;7.93;;;19.40;99.90;;;;;;4965121;28;20042;-74
2022/10/30 07:48:50;;;;;;;17.20;7.40;;;19.40;99.90;;;;;;4952355;28;20035;-74
2022/10/30 07:51:16;;;;;;;20.38;7.53;;;19.40;99.90;;;;;;4920929;28;20055;-75
2022/10/30 07:53:42;;;;;;;21.50;8.73;;;19.40;99.90;;;;;;4945131;28;20067;-74
2022/10/30 07:56:08;;;;;;;22.00;8.88;;;19.40;99.90;;;;;;4941892;28;20455;-74
2022/10/30 07:58:34;;;;;;;21.80;8.00;;;19.50;99.90;;;;;;4950180;29;20046;-75
2022/10/30 08:01:02;;;;;;;20.00;9.40;;;19.50;99.90;;;;;;4944873;28;20082;-75
2022/10/30 08:03:28;;;;;;;21.48;8.82;;;19.50;99.90;;;;;;4944572;28;20089;-74
2022/10/30 08:05:54;;;;;;;23.08;8.43;;;19.40;99.90;;;;;;4943900;28;20446;-75
2022/10/30 08:08:20;;;;;;;21.00;8.65;;;19.50;99.90;;;;;;4941618;28;20031;-75
2022/10/30 08:10:46;;;;;;;18.60;7.63;;;19.50;99.90;;;;;;4947994;28;20036;-75
2022/10/30 08:13:13;;;;;;;16.08;8.23;;;19.50;99.90;;;;;;4943372;28;20083;-74
2022/10/30 08:15:41;;;;;;;14.85;6.78;;;19.60;99.90;;;;;;4941250;28;20039;-74
2022/10/30 08:18:07;;;;;;;17.17;7.40;;;19.70;99.90;;;;;;4940997;28;20035;-74
2022/10/30 08:20:34;;;;;;;21.17;8.07;;;19.80;99.90;;;;;;4946856;28;20051;-74
2022/10/30 08:23:00;;;;;;;21.48;7.25;;;19.90;99.90;;;;;;4942899;28;20073;-74
2022/10/30 08:25:28;;;;;;;19.35;7.13;;;19.90;99.90;;;;;;4951955;28;20627;-75
2022/10/30 08:28:03;;;;;;;17.70;7.00;;;19.90;99.90;;;;;;4941638;28;20067;-75
2022/10/30 08:30:33;;;;;;;17.35;6.57;;;19.90;99.90;;;;;;4900080;28;1945058;-75
2022/10/30 08:33:00;;;;;;;16.58;6.97;;;20.00;99.90;;;;;;4943599;28;20040;-75
2022/10/30 08:35:27;;;;;;;22.42;7.05;;;20.00;99.90;;;;;;4940850;28;20514;-74
2022/10/30 08:37:56;;;;;;;15.43;6.18;;;20.00;99.90;;;;;;4955681;28;20039;-74
2022/10/30 08:40:23;;;;;;;19.20;6.13;;;20.10;99.90;;;;;;4923537;29;20042;-75
2022/10/30 08:42:50;;;;;;;17.52;6.70;;;20.30;99.90;;;;;;4945886;28;20513;-76
2022/10/30 08:45:16;;;;;;;21.48;7.05;;;20.50;99.90;;;;;;4938880;28;20046;-76
2022/10/30 08:47:43;;;;;;;22.27;7.00;;;20.60;99.90;;;;;;4940075;28;20517;-77
2022/10/30 08:50:09;;;;;;;25.88;11.75;;;20.90;99.90;;;;;;4928910;28;20039;-76
2022/10/30 08:52:36;;;;;;;26.92;11.00;;;21.10;99.90;;;;;;4944899;28;20240;-76
2022/10/30 08:55:02;;;;;;;15.60;5.97;;;21.20;99.90;;;;;;4946324;28;20039;-76
2022/10/30 08:57:28;;;;;;;15.80;5.75;;;21.20;99.90;;;;;;4943839;28;20046;-76
2022/10/30 08:59:53;;;;;;;14.45;6.00;;;21.30;99.90;;;;;;4952795;28;20396;-76
2022/10/30 09:02:21;;;;;;;17.75;6.95;;;21.40;99.90;;;;;;4938924;28;20050;-75
2022/10/30 09:04:46;;;;;;;16.40;6.72;;;21.50;99.90;;;;;;4960233;28;20042;-76
2022/10/30 09:07:12;;;;;;;20.30;6.80;;;21.70;99.90;;;;;;4968319;28;20375;-75
2022/10/30 09:09:38;;;;;;;19.48;6.70;;;21.70;99.90;;;;;;4947789;28;20036;-78
2022/10/30 09:12:04;;;;;;;11.52;5.80;;;21.60;99.90;;;;;;4942947;28;20027;-76
2022/10/30 09:14:30;;;;;;;13.55;6.28;;;21.60;99.90;;;;;;4958580;28;20058;-75
2022/10/30 09:16:57;;;;;;;12.77;5.95;;;21.60;99.90;;;;;;4940435;28;20109;-74
2022/10/30 09:19:23;;;;;;;15.80;6.10;;;21.50;99.90;;;;;;4940700;28;20053;-75
2022/10/30 09:21:50;;;;;;;17.30;6.47;;;21.40;99.90;;;;;;4943768;28;20039;-73
2022/10/30 09:24:16;;;;;;;23.13;7.18;;;21.40;99.90;;;;;;4938103;28;20051;-75
2022/10/30 09:26:42;;;;;;;19.67;6.93;;;21.40;99.90;;;;;;4951384;28;20046;-76
2022/10/30 09:29:08;;;;;;;16.38;6.22;;;21.40;99.90;;;;;;4941347;28;20039;-76
2022/10/30 09:31:34;;;;;;;18.30;7.50;;;21.30;99.90;;;;;;4941601;28;20039;-76
2022/10/30 09:33:59;;;;;;;14.75;7.32;;;21.40;99.90;;;;;;4945245;28;20107;-75
2022/10/30 09:36:28;;;;;;;17.90;7.57;;;21.60;99.90;;;;;;4944277;28;20059;-74
2022/10/30 09:38:55;;;;;;;16.95;7.22;;;22.00;99.90;;;;;;4941346;28;20474;-75
2022/10/30 09:41:37;;;;;;;17.15;6.50;;;22.40;99.90;;;;;;4938297;28;20043;-76
2022/10/30 09:44:36;;;;;;;16.98;6.43;;;23.00;99.90;;;;;;4943753;28;20055;-74
2022/10/30 09:47:27;;;;;;;14.88;6.30;;;23.50;99.90;;;;;;4925169;28;20113;-76
2022/10/30 09:49:55;;;;;;;18.05;6.70;;;24.00;99.90;;;;;;4943532;28;20036;-76
2022/10/30 09:52:57;;;;;;;17.83;6.78;;;24.30;99.90;;;;;;4943214;28;20063;-75
2022/10/30 09:55:41;;;;;;;22.95;6.88;;;24.90;99.90;;;;;;4937429;28;20036;-76
2022/10/30 09:58:07;;;;;;;23.17;6.60;;;25.50;99.90;;;;;;4940648;28;20054;-75
2022/10/30 10:00:38;;;;;;;18.77;6.38;;;25.60;99.90;;;;;;4945017;28;20035;-76
2022/10/30 10:03:32;;;;;;;16.00;6.32;;;25.40;99.90;;;;;;4940580;28;20399;-75
2022/10/30 10:06:01;;;;;;;23.05;6.68;;;25.30;99.90;;;;;;4948799;28;21267;-76
2022/10/30 10:08:40;;;;;;;15.63;5.95;;;24.70;99.90;;;;;;4945403;28;20035;-76
2022/10/30 10:11:36;;;;;;;19.77;7.45;;;24.30;99.90;;;;;;4926025;28;20050;-75
2022/10/30 10:14:24;;;;;;;20.15;6.40;;;23.60;99.90;;;;;;4938310;28;20126;-75
2022/10/30 10:16:55;;;;;;;20.83;6.65;;;23.10;99.90;;;;;;4964183;28;20091;-75
2022/10/30 10:19:48;;;;;;;20.90;6.60;;;22.80;99.90;;;;;;4942327;28;20034;-75
2022/10/30 10:22:39;;;;;;;19.85;7.10;;;22.60;99.90;;;;;;4942962;28;20075;-75
2022/10/30 10:25:11;;;;;;;18.45;6.32;;;22.60;99.90;;;;;;4941678;28;20070;-75
2022/10/30 10:28:05;;;;;;;19.77;6.90;;;22.90;99.90;;;;;;4948860;28;20039;-76
2022/10/30 10:30:46;;;;;;;17.38;6.68;;;22.70;99.90;;;;;;4944696;28;20498;-75
2022/10/30 10:33:17;;;;;;;21.73;7.40;;;22.70;99.90;;;;;;4939892;28;20761;-76
2022/10/30 10:36:07;;;;;;;20.45;7.53;;;22.90;99.90;;;;;;4942435;28;20061;-76
2022/10/30 10:39:02;;;;;;;25.17;7.93;;;23.00;99.90;;;;;;4945671;28;20085;-76
2022/10/30 10:41:49;;;;;;;20.25;6.78;;;23.30;99.90;;;;;;4957781;28;20039;-76
2022/10/30 10:44:40;;;;;;;24.45;7.18;;;24.20;99.90;;;;;;4943451;28;20100;-76
2022/10/30 10:47:23;;;;;;;18.52;6.72;;;24.20;99.90;;;;;;4943206;28;20439;-76
2022/10/30 10:50:11;;;;;;;19.30;7.10;;;23.90;99.90;;;;;;4947027;28;20031;-76
2022/10/30 10:52:41;;;;;;;21.23;7.32;;;23.60;99.90;;;;;;4929984;28;20555;-77
2022/10/30 10:55:19;;;;;;;23.02;7.63;;;23.30;99.90;;;;;;4960410;28;20033;-76
2022/10/30 10:57:46;;;;;;;23.52;7.82;;;23.20;99.90;;;;;;4955925;28;20074;-76
2022/10/30 11:00:19;;;;;;;18.38;6.88;;;23.50;99.90;;;;;;4942383;28;20027;-76
2022/10/30 11:02:55;;;;;;;19.02;6.80;;;24.10;99.90;;;;;;4955921;28;20378;-76
2022/10/30 11:05:45;;;;;;;16.38;6.85;;;24.30;99.90;;;;;;4967686;28;20046;-77
2022/10/30 11:08:29;;;;;;;16.83;6.82;;;24.40;99.90;;;;;;4969262;28;20030;-78
2022/10/30 11:11:06;;;;;;;21.75;7.63;;;24.60;99.90;;;;;;4964982;28;20043;-77
2022/10/30 11:13:44;;;;;;;18.33;6.97;;;24.70;99.90;;;;;;4960539;28;20098;-77
2022/10/30 11:16:37;;;;;;;22.60;8.23;;;24.90;99.90;;;;;;4963551;28;20046;-78
2022/10/30 11:19:07;;;;;;;21.55;6.80;;;24.80;99.90;;;;;;4965936;28;20426;-77
2022/10/30 11:21:40;;;;;;;22.00;7.40;;;24.80;99.90;;;;;;4964501;28;20039;-77
2022/10/30 11:24:32;;;;;;;17.13;8.05;;;25.20;99.90;;;;;;4953925;28;20219;-77
2022/10/30 11:27:24;;;;;;;16.35;7.18;;;25.80;99.90;;;;;;4952071;28;20024;-77
2022/10/30 11:30:02;;;;;;;18.70;7.15;;;26.20;99.90;;;;;;4970668;28;20043;-78
2022/10/30 11:32:30;;;;;;;17.67;8.07;;;26.70;99.90;;;;;;4945856;28;20134;-78
2022/10/30 11:35:08;;;;;;;22.33;7.30;;;27.30;99.90;;;;;;4950567;28;20746;-78
2022/10/30 11:37:37;;;;;;;18.52;7.72;;;26.70;99.90;;;;;;4961351;28;20039;-77
2022/10/30 11:40:12;;;;;;;17.30;8.13;;;26.60;99.90;;;;;;4945487;28;20032;-78
2022/10/30 11:42:50;;;;;;;19.02;7.57;;;27.50;99.90;;;;;;4961938;28;20121;-78
2022/10/30 11:45:23;;;;;;;20.95;8.43;;;27.80;99.90;;;;;;4956593;28;20043;-78
2022/10/30 11:47:49;;;;;;;19.35;7.38;;;28.50;99.90;;;;;;4950887;28;20095;-78
2022/10/30 11:50:25;;;;;;;19.48;7.30;;;29.30;99.90;;;;;;4947894;28;20031;-78
2022/10/30 11:52:59;;;;;;;17.83;8.23;;;29.80;99.90;;;;;;4958307;28;20030;-78
2022/10/30 11:55:54;;;;;;;18.65;7.05;;;30.00;99.90;;;;;;4965122;28;20392;-78
2022/10/30 11:58:43;;;;;;;18.83;6.88;;;30.20;99.90;;;;;;4945339;28;20047;-79
2022/10/30 12:01:33;;;;;;;20.38;7.47;;;30.30;99.60;;;;;;4952074;28;20047;-78
2022/10/30 12:04:20;;;;;;;23.10;7.97;;;29.80;99.60;;;;;;4952131;28;20032;-78
2022/10/30 12:06:45;;;;;;;16.70;7.28;;;27.50;99.90;;;;;;4953090;28;20077;-77
2022/10/30 12:09:21;;;;;;;18.05;7.13;;;26.60;99.90;;;;;;4947224;28;25613;-78
2022/10/30 12:11:47;;;;;;;20.48;7.45;;;26.30;99.90;;;;;;4964089;28;20177;-78
2022/10/30 12:14:22;;;;;;;23.42;8.23;;;26.00;99.90;;;;;;4968679;28;20062;-77
2022/10/30 12:16:50;;;;;;;18.27;8.93;;;25.30;99.90;;;;;;4969942;28;20046;-77
2022/10/30 12:19:19;;;;;;;22.42;8.05;;;24.80;99.90;;;;;;4970319;28;20109;-76
2022/10/30 12:21:47;;;;;;;18.15;6.97;;;24.90;99.90;;;;;;4972845;28;20046;-78
2022/10/30 12:24:28;;;;;;;19.63;7.07;;;25.10;99.90;;;;;;4965682;28;20114;-77
2022/10/30 12:26:55;;;;;;;18.13;7.32;;;25.40;99.90;;;;;;4969031;28;20034;-77
2022/10/30 12:29:26;;;;;;;18.65;7.55;;;25.60;99.90;;;;;;4970293;28;20039;-78
2022/10/30 12:32:01;;;;;;;21.23;7.22;;;25.30;99.90;;;;;;4985468;28;20053;-78
2022/10/30 12:34:44;;;;;;;17.05;5.95;;;25.70;99.90;;;;;;4970334;28;20050;-77
2022/10/30 12:37:20;;;;;;;19.38;6.28;;;27.00;99.90;;;;;;4959873;28;20399;-77
2022/10/30 12:39:49;;;;;;;14.23;6.03;;;27.20;99.90;;;;;;4944010;28;20059;-75
2022/10/30 12:42:17;;;;;;;21.77;6.53;;;26.90;99.90;;;;;;4942694;28;20035;-77
2022/10/30 12:44:54;;;;;;;15.32;6.35;;;26.40;99.90;;;;;;4941960;28;20086;-76
2022/10/30 12:47:41;;;;;;;16.67;5.82;;;26.20;99.90;;;;;;4945254;28;20192;-77
2022/10/30 12:50:24;;;;;;;18.55;6.10;;;26.10;99.90;;;;;;4952372;28;20035;-78
2022/10/30 12:53:24;;;;;;;24.42;6.88;;;26.00;99.90;;;;;;4946052;28;20058;-77